Time,TemperatureF,DewpointF,PressureIn,WindDirection,WindDirectionDegrees,WindSpeedMPH,WindSpeedGustMPH,Humidity,HourlyPrecipIn,Conditions,Clouds,dailyrainin,SoftwareType,DateUTC
2013-01-18 11:53:00,31.0,31.0,-100.00,SSE,154,0.0,0.0,100,0.00,,,-99.99,,2013-01-18 16:53:00,
2013-01-18 12:03:00,31.0,31.0,-100.00,SSE,154,0.0,0.0,100,0.00,,,-99.99,,2013-01-18 17:03:00,
2013-01-18 12:13:00,31.0,31.0,-100.00,SSE,154,0.0,0.0,100,0.00,,,-99.99,,2013-01-18 17:13:00,
2013-01-18 12:23:00,31.0,31.0,-100.00,SSE,164,3.0,4.0,100,0.28,,,-99.99,,2013-01-18 17:23:00,
2013-01-18 12:34:00,31.0,31.0,-100.00,SSE,164,3.0,4.0,100,0.28,,,-99.99,,2013-01-18 17:34:00,
2013-01-18 12:43:00,31.0,31.0,-100.00,SSE,162,2.0,3.0,99,0.00,,,-99.99,,2013-01-18 17:43:00,
2013-01-18 12:53:00,31.0,31.0,-100.00,SSE,162,2.0,3.0,99,0.00,,,-99.99,,2013-01-18 17:53:00,
2013-01-18 13:03:00,31.0,31.0,-100.00,SSE,155,2.0,4.0,99,0.00,,,-99.99,,2013-01-18 18:03:00,
2013-01-18 13:13:00,31.0,31.0,-100.00,SSE,155,2.0,4.0,99,0.00,,,-99.99,,2013-01-18 18:13:00,
2013-01-18 13:23:00,31.0,30.0,-100.00,SSW,193,3.0,6.0,97,0.00,,,-99.99,,2013-01-18 18:23:00,
2013-01-18 13:33:00,31.0,30.0,-100.00,SSW,193,3.0,6.0,97,0.00,,,-99.99,,2013-01-18 18:33:00,
2013-01-18 13:43:00,32.0,31.0,-100.00,South,176,2.0,4.0,97,0.00,,,-99.99,,2013-01-18 18:43:00,
2013-01-18 13:53:00,32.0,31.0,-100.00,South,176,2.0,4.0,97,0.00,,,-99.99,,2013-01-18 18:53:00,
2013-01-18 14:03:00,32.0,31.0,-100.00,SSE,154,2.0,3.0,97,0.00,,,-99.99,,2013-01-18 19:03:00,
2013-01-18 14:13:00,32.0,31.0,-100.00,SSE,154,2.0,3.0,97,0.00,,,-99.99,,2013-01-18 19:13:00,
2013-01-18 14:23:00,32.0,32.0,-100.00,South,172,2.0,4.0,97,0.00,,,-99.99,,2013-01-18 19:23:00,
2013-01-18 14:33:00,32.0,32.0,-100.00,South,172,2.0,4.0,97,0.00,,,-99.99,,2013-01-18 19:33:00,
2013-01-18 14:43:00,32.0,32.0,-100.00,South,172,2.0,4.0,97,0.00,,,-99.99,,2013-01-18 19:43:00,
2013-01-18 15:03:00,33.0,32.0,-100.00,South,191,5.0,7.0,95,0.00,,,-99.99,,2013-01-18 20:03:00,
2013-01-18 15:23:00,33.0,32.0,-100.00,SSE,168,3.0,6.0,96,0.00,,,-99.99,,2013-01-18 20:23:00,
2013-01-18 15:33:00,33.0,32.0,-100.00,SSE,168,3.0,6.0,96,0.00,,,-99.99,,2013-01-18 20:33:00,
2013-01-18 15:43:00,34.0,32.0,-100.00,SW,229,5.0,9.0,94,0.00,,,-99.99,,2013-01-18 20:43:00,
2013-01-18 15:53:00,34.0,32.0,-100.00,SW,229,5.0,9.0,94,0.00,,,-99.99,,2013-01-18 20:53:00,
2013-01-18 16:03:00,34.0,32.0,-100.00,SW,229,5.0,9.0,94,0.00,,,-99.99,,2013-01-18 21:03:00,
2013-01-18 16:13:00,33.0,31.0,-100.00,South,178,4.0,6.0,95,0.00,,,-99.99,,2013-01-18 21:13:00,
2013-01-18 16:23:00,33.0,31.0,-100.00,South,178,4.0,6.0,95,0.00,,,-99.99,,2013-01-18 21:23:00,
2013-01-18 16:43:00,33.0,31.0,-100.00,South,191,4.0,6.0,93,0.00,,,-99.99,,2013-01-18 21:43:00,
2013-01-18 16:53:00,33.0,31.0,-100.00,South,191,4.0,6.0,93,0.00,,,-99.99,,2013-01-18 21:53:00,
2013-01-18 17:03:00,33.0,31.0,-100.00,South,191,4.0,6.0,93,0.00,,,-99.99,,2013-01-18 22:03:00,
2013-01-18 18:33:00,30.0,29.0,-100.00,SSW,212,2.0,4.0,96,0.00,,,-99.99,,2013-01-18 23:33:00,
2013-01-18 18:43:00,30.0,29.0,-100.00,WSW,244,2.0,3.0,97,0.00,,,-99.99,,2013-01-18 23:43:00,
2013-01-18 18:53:00,30.0,29.0,-100.00,WSW,244,2.0,3.0,97,0.00,,,-99.99,,2013-01-18 23:53:00,
2013-01-18 19:03:00,29.0,29.0,-100.00,SW,230,2.0,3.0,97,0.00,,,-99.99,,2013-01-19 00:03:00,
2013-01-18 19:13:00,29.0,29.0,-100.00,SW,230,2.0,3.0,97,0.00,,,-99.99,,2013-01-19 00:13:00,
2013-01-18 19:23:00,29.0,29.0,-100.00,WSW,246,2.0,3.0,98,0.00,,,-99.99,,2013-01-19 00:23:00,
2013-01-18 19:33:00,29.0,29.0,-100.00,WSW,246,2.0,3.0,98,0.00,,,-99.99,,2013-01-19 00:33:00,
2013-01-18 19:43:00,29.0,28.0,-100.00,SW,233,0.0,1.0,98,0.00,,,-99.99,,2013-01-19 00:43:00,
2013-01-18 19:53:00,29.0,28.0,-100.00,SW,233,0.0,1.0,98,0.00,,,-99.99,,2013-01-19 00:53:00,
2013-01-18 20:03:00,29.0,28.0,-100.00,SW,233,0.0,1.0,98,0.00,,,-99.99,,2013-01-19 01:03:00,
2013-01-18 20:23:00,29.0,29.0,-100.00,WSW,240,2.0,4.0,98,0.00,,,-99.99,,2013-01-19 01:23:00,
2013-01-18 20:33:00,29.0,29.0,-100.00,WSW,240,2.0,4.0,98,0.00,,,-99.99,,2013-01-19 01:33:00,
2013-01-18 20:43:00,28.0,28.0,-100.00,NNW,330,0.0,0.0,99,0.00,,,-99.99,,2013-01-19 01:43:00,
2013-01-18 20:53:00,28.0,28.0,-100.00,NNW,330,0.0,0.0,99,0.00,,,-99.99,,2013-01-19 01:53:00,
2013-01-18 21:03:00,28.0,28.0,-100.00,NNW,344,0.0,1.0,100,0.00,,,-99.99,,2013-01-19 02:03:00,
2013-01-18 21:12:00,28.0,28.0,-100.00,NNW,344,0.0,1.0,100,0.00,,,-99.99,,2013-01-19 02:12:00,
2013-01-18 21:23:00,28.0,28.0,-100.00,West,278,0.0,1.0,99,0.00,,,-99.99,,2013-01-19 02:23:00,
2013-01-18 21:33:00,28.0,28.0,-100.00,West,278,0.0,1.0,99,0.00,,,-99.99,,2013-01-19 02:33:00,
2013-01-18 21:43:00,27.0,27.0,-100.00,SW,220,1.0,2.0,99,0.00,,,-99.99,,2013-01-19 02:43:00,
2013-01-18 21:53:00,27.0,27.0,-100.00,SW,220,1.0,2.0,99,0.00,,,-99.99,,2013-01-19 02:53:00,
2013-01-18 22:03:00,26.0,26.0,-100.00,WSW,244,0.0,1.0,99,0.00,,,-99.99,,2013-01-19 03:03:00,
2013-01-18 22:12:00,26.0,26.0,-100.00,WSW,244,0.0,1.0,99,0.00,,,-99.99,,2013-01-19 03:12:00,
2013-01-18 22:23:00,26.0,26.0,-100.00,WSW,241,0.0,1.0,99,0.00,,,-99.99,,2013-01-19 03:23:00,
2013-01-18 22:33:00,26.0,26.0,-100.00,WSW,241,0.0,1.0,99,0.00,,,-99.99,,2013-01-19 03:33:00,
2013-01-18 22:43:00,25.0,25.0,-100.00,SW,234,1.0,2.0,98,0.00,,,-99.99,,2013-01-19 03:43:00,
2013-01-18 22:53:00,25.0,25.0,-100.00,SW,234,1.0,2.0,98,0.00,,,-99.99,,2013-01-19 03:53:00,
2013-01-18 23:02:00,26.0,25.0,-100.00,SSW,208,0.0,0.0,96,0.00,,,-99.99,,2013-01-19 04:02:00,
2013-01-18 23:12:00,26.0,25.0,-100.00,SSW,208,0.0,0.0,96,0.00,,,-99.99,,2013-01-19 04:12:00,
2013-01-18 23:22:00,26.0,25.0,-100.00,NW,306,0.0,2.0,96,0.00,,,-99.99,,2013-01-19 04:22:00,
2013-01-18 23:33:00,26.0,25.0,-100.00,NW,306,0.0,2.0,96,0.00,,,-99.99,,2013-01-19 04:33:00,
2013-01-18 23:42:00,25.0,24.0,-100.00,SW,232,1.0,1.0,96,0.00,,,-99.99,,2013-01-19 04:42:00,
2013-01-18 23:53:00,25.0,24.0,-100.00,SW,232,1.0,1.0,96,0.00,,,-99.99,,2013-01-19 04:53:00,